sensor_id;sensor_type;location;lat;lon;timestamp;P1;durP1;ratioP1;P2;durP2;ratioP2
22334;SDS011;11335;43.848;25.958;2023-10-09T00:02:28;2.45;;;1.30;;
22334;SDS011;11335;43.848;25.958;2023-10-09T00:05:15;1.95;;;1.20;;
22334;SDS011;11335;43.848;25.958;2023-10-09T00:08:09;2.35;;;1.40;;
22334;SDS011;11335;43.848;25.958;2023-10-09T00:10:54;4.22;;;1.50;;
22334;SDS011;11335;43.848;25.958;2023-10-09T00:13:40;3.92;;;1.50;;
22334;SDS011;11335;43.848;25.958;2023-10-09T00:16:34;3.75;;;1.30;;
22334;SDS011;11335;43.848;25.958;2023-10-09T00:19:20;3.45;;;1.30;;
22334;SDS011;11335;43.848;25.958;2023-10-09T00:22:07;1.73;;;0.93;;
22334;SDS011;11335;43.848;25.958;2023-10-09T00:24:57;4.93;;;1.20;;
22334;SDS011;11335;43.848;25.958;2023-10-09T00:27:58;3.22;;;1.63;;
22334;SDS011;11335;43.848;25.958;2023-10-09T00:30:45;2.38;;;1.00;;
22334;SDS011;11335;43.848;25.958;2023-10-09T00:33:30;2.40;;;1.30;;
22334;SDS011;11335;43.848;25.958;2023-10-09T00:36:16;3.78;;;1.30;;
22334;SDS011;11335;43.848;25.958;2023-10-09T00:39:05;2.17;;;1.00;;
22334;SDS011;11335;43.848;25.958;2023-10-09T00:42:03;2.70;;;1.25;;
22334;SDS011;11335;43.848;25.958;2023-10-09T00:44:51;2.25;;;1.25;;
22334;SDS011;11335;43.848;25.958;2023-10-09T00:47:37;1.85;;;1.13;;
22334;SDS011;11335;43.848;25.958;2023-10-09T00:50:26;6.00;;;1.25;;
22334;SDS011;11335;43.848;25.958;2023-10-09T00:53:12;3.28;;;1.38;;
22334;SDS011;11335;43.848;25.958;2023-10-09T00:55:58;9.60;;;1.42;;
22334;SDS011;11335;43.848;25.958;2023-10-09T00:58:49;2.08;;;1.42;;
22334;SDS011;11335;43.848;25.958;2023-10-09T01:01:41;3.53;;;1.40;;
22334;SDS011;11335;43.848;25.958;2023-10-09T01:04:41;2.60;;;1.25;;
22334;SDS011;11335;43.848;25.958;2023-10-09T01:07:29;3.88;;;1.55;;
22334;SDS011;11335;43.848;25.958;2023-10-09T01:10:17;3.13;;;1.55;;
22334;SDS011;11335;43.848;25.958;2023-10-09T01:13:04;2.83;;;1.40;;
22334;SDS011;11335;43.848;25.958;2023-10-09T01:15:50;3.47;;;1.33;;
22334;SDS011;11335;43.848;25.958;2023-10-09T01:18:37;3.65;;;1.40;;
22334;SDS011;11335;43.848;25.958;2023-10-09T01:21:28;3.80;;;1.40;;
22334;SDS011;11335;43.848;25.958;2023-10-09T01:24:16;1.95;;;1.17;;
22334;SDS011;11335;43.848;25.958;2023-10-09T01:27:07;2.28;;;1.25;;
22334;SDS011;11335;43.848;25.958;2023-10-09T01:30:00;3.38;;;1.23;;
22334;SDS011;11335;43.848;25.958;2023-10-09T01:32:45;2.50;;;1.40;;
22334;SDS011;11335;43.848;25.958;2023-10-09T01:35:31;2.22;;;1.25;;
22334;SDS011;11335;43.848;25.958;2023-10-09T01:38:19;2.70;;;1.40;;
22334;SDS011;11335;43.848;25.958;2023-10-09T01:41:15;2.65;;;1.15;;
22334;SDS011;11335;43.848;25.958;2023-10-09T01:44:01;2.00;;;1.15;;
22334;SDS011;11335;43.848;25.958;2023-10-09T01:46:55;2.00;;;1.10;;
22334;SDS011;11335;43.848;25.958;2023-10-09T01:49:43;1.83;;;1.10;;
22334;SDS011;11335;43.848;25.958;2023-10-09T01:52:28;1.55;;;0.93;;
22334;SDS011;11335;43.848;25.958;2023-10-09T01:55:15;3.33;;;1.30;;
22334;SDS011;11335;43.848;25.958;2023-10-09T01:58:14;2.95;;;1.55;;
22334;SDS011;11335;43.848;25.958;2023-10-09T02:01:06;2.53;;;1.23;;
22334;SDS011;11335;43.848;25.958;2023-10-09T02:03:51;3.85;;;1.55;;
22334;SDS011;11335;43.848;25.958;2023-10-09T02:06:37;3.28;;;1.52;;
22334;SDS011;11335;43.848;25.958;2023-10-09T02:09:23;1.95;;;1.27;;
22334;SDS011;11335;43.848;25.958;2023-10-09T02:12:16;2.60;;;1.33;;
22334;SDS011;11335;43.848;25.958;2023-10-09T02:15:03;2.60;;;1.50;;
22334;SDS011;11335;43.848;25.958;2023-10-09T02:18:00;4.05;;;1.60;;
22334;SDS011;11335;43.848;25.958;2023-10-09T02:23:50;2.20;;;1.45;;
22334;SDS011;11335;43.848;25.958;2023-10-09T02:26:35;4.97;;;1.73;;
22334;SDS011;11335;43.848;25.958;2023-10-09T02:29:24;3.40;;;1.50;;
22334;SDS011;11335;43.848;25.958;2023-10-09T02:32:09;2.13;;;1.40;;
22334;SDS011;11335;43.848;25.958;2023-10-09T02:35:10;2.80;;;1.40;;
22334;SDS011;11335;43.848;25.958;2023-10-09T02:38:21;5.82;;;1.80;;
22334;SDS011;11335;43.848;25.958;2023-10-09T02:41:11;2.55;;;1.42;;
22334;SDS011;11335;43.848;25.958;2023-10-09T02:43:57;1.98;;;1.27;;
22334;SDS011;11335;43.848;25.958;2023-10-09T02:46:44;3.40;;;1.27;;
22334;SDS011;11335;43.848;25.958;2023-10-09T02:49:30;3.17;;;1.60;;
22334;SDS011;11335;43.848;25.958;2023-10-09T02:52:16;2.20;;;1.40;;
22334;SDS011;11335;43.848;25.958;2023-10-09T02:55:10;4.68;;;1.63;;
22334;SDS011;11335;43.848;25.958;2023-10-09T02:58:08;3.58;;;1.30;;
22334;SDS011;11335;43.848;25.958;2023-10-09T03:01:23;3.72;;;1.88;;
22334;SDS011;11335;43.848;25.958;2023-10-09T03:04:08;2.63;;;1.60;;
22334;SDS011;11335;43.848;25.958;2023-10-09T03:06:57;3.15;;;1.50;;
22334;SDS011;11335;43.848;25.958;2023-10-09T03:09:43;2.63;;;1.48;;
22334;SDS011;11335;43.848;25.958;2023-10-09T03:12:29;4.57;;;1.60;;
22334;SDS011;11335;43.848;25.958;2023-10-09T03:15:14;5.93;;;1.42;;
22334;SDS011;11335;43.848;25.958;2023-10-09T03:18:00;3.30;;;1.40;;
22334;SDS011;11335;43.848;25.958;2023-10-09T03:20:46;2.22;;;1.50;;
22334;SDS011;11335;43.848;25.958;2023-10-09T03:23:31;2.55;;;1.38;;
22334;SDS011;11335;43.848;25.958;2023-10-09T03:26:18;4.07;;;1.70;;
22334;SDS011;11335;43.848;25.958;2023-10-09T03:29:04;3.55;;;1.70;;
22334;SDS011;11335;43.848;25.958;2023-10-09T03:31:55;6.65;;;1.45;;
22334;SDS011;11335;43.848;25.958;2023-10-09T03:34:42;2.53;;;1.38;;
22334;SDS011;11335;43.848;25.958;2023-10-09T03:37:28;4.35;;;1.50;;
22334;SDS011;11335;43.848;25.958;2023-10-09T03:40:24;3.00;;;1.67;;
22334;SDS011;11335;43.848;25.958;2023-10-09T03:43:10;2.70;;;1.63;;
22334;SDS011;11335;43.848;25.958;2023-10-09T03:45:56;2.67;;;1.58;;
22334;SDS011;11335;43.848;25.958;2023-10-09T03:48:42;5.10;;;1.60;;
22334;SDS011;11335;43.848;25.958;2023-10-09T03:51:30;3.38;;;1.30;;
22334;SDS011;11335;43.848;25.958;2023-10-09T03:54:18;3.47;;;2.00;;
22334;SDS011;11335;43.848;25.958;2023-10-09T03:57:07;2.38;;;1.60;;
22334;SDS011;11335;43.848;25.958;2023-10-09T03:59:53;6.63;;;2.30;;
22334;SDS011;11335;43.848;25.958;2023-10-09T04:02:40;7.10;;;1.70;;
22334;SDS011;11335;43.848;25.958;2023-10-09T04:05:27;2.42;;;1.55;;
22334;SDS011;11335;43.848;25.958;2023-10-09T04:08:13;2.67;;;1.67;;
22334;SDS011;11335;43.848;25.958;2023-10-09T04:11:01;2.20;;;1.65;;
22334;SDS011;11335;43.848;25.958;2023-10-09T04:13:49;4.20;;;2.10;;
22334;SDS011;11335;43.848;25.958;2023-10-09T04:16:35;3.10;;;1.65;;
22334;SDS011;11335;43.848;25.958;2023-10-09T04:19:36;3.53;;;1.75;;
22334;SDS011;11335;43.848;25.958;2023-10-09T04:22:33;2.60;;;1.60;;
22334;SDS011;11335;43.848;25.958;2023-10-09T04:25:24;4.88;;;2.05;;
22334;SDS011;11335;43.848;25.958;2023-10-09T04:28:14;2.25;;;1.60;;
22334;SDS011;11335;43.848;25.958;2023-10-09T04:31:00;5.40;;;1.60;;
22334;SDS011;11335;43.848;25.958;2023-10-09T04:33:51;3.08;;;2.03;;
22334;SDS011;11335;43.848;25.958;2023-10-09T04:36:40;3.28;;;1.90;;
22334;SDS011;11335;43.848;25.958;2023-10-09T04:39:32;4.95;;;1.60;;
22334;SDS011;11335;43.848;25.958;2023-10-09T04:42:17;2.95;;;1.52;;
22334;SDS011;11335;43.848;25.958;2023-10-09T04:45:21;15.18;;;2.10;;
22334;SDS011;11335;43.848;25.958;2023-10-09T04:48:27;3.47;;;2.00;;
22334;SDS011;11335;43.848;25.958;2023-10-09T04:51:18;4.70;;;1.52;;
22334;SDS011;11335;43.848;25.958;2023-10-09T04:54:07;4.70;;;1.70;;
22334;SDS011;11335;43.848;25.958;2023-10-09T04:56:58;4.40;;;1.75;;
22334;SDS011;11335;43.848;25.958;2023-10-09T04:59:45;12.45;;;2.20;;
22334;SDS011;11335;43.848;25.958;2023-10-09T05:02:33;8.68;;;2.20;;
22334;SDS011;11335;43.848;25.958;2023-10-09T05:05:22;3.33;;;1.65;;
22334;SDS011;11335;43.848;25.958;2023-10-09T05:08:26;6.18;;;1.67;;
22334;SDS011;11335;43.848;25.958;2023-10-09T05:11:12;5.53;;;1.80;;
22334;SDS011;11335;43.848;25.958;2023-10-09T05:14:20;6.20;;;1.30;;
22334;SDS011;11335;43.848;25.958;2023-10-09T05:17:12;6.55;;;1.98;;
22334;SDS011;11335;43.848;25.958;2023-10-09T05:20:01;3.53;;;1.80;;
22334;SDS011;11335;43.848;25.958;2023-10-09T05:23:06;9.82;;;2.00;;
22334;SDS011;11335;43.848;25.958;2023-10-09T05:26:08;3.97;;;1.50;;
22334;SDS011;11335;43.848;25.958;2023-10-09T05:32:19;11.95;;;2.10;;
22334;SDS011;11335;43.848;25.958;2023-10-09T05:35:15;7.03;;;1.85;;
22334;SDS011;11335;43.848;25.958;2023-10-09T05:38:15;7.00;;;1.58;;
22334;SDS011;11335;43.848;25.958;2023-10-09T05:41:08;6.60;;;1.33;;
22334;SDS011;11335;43.848;25.958;2023-10-09T05:44:13;6.95;;;1.40;;
22334;SDS011;11335;43.848;25.958;2023-10-09T05:47:17;5.40;;;1.63;;
22334;SDS011;11335;43.848;25.958;2023-10-09T05:50:24;2.42;;;1.30;;
22334;SDS011;11335;43.848;25.958;2023-10-09T05:53:10;3.80;;;1.85;;
22334;SDS011;11335;43.848;25.958;2023-10-09T05:56:15;4.97;;;1.70;;
22334;SDS011;11335;43.848;25.958;2023-10-09T05:59:19;5.78;;;1.85;;
22334;SDS011;11335;43.848;25.958;2023-10-09T06:02:23;5.40;;;2.50;;
22334;SDS011;11335;43.848;25.958;2023-10-09T06:05:28;7.28;;;1.90;;
22334;SDS011;11335;43.848;25.958;2023-10-09T06:08:26;5.95;;;1.65;;
22334;SDS011;11335;43.848;25.958;2023-10-09T06:11:23;5.43;;;1.65;;
22334;SDS011;11335;43.848;25.958;2023-10-09T06:14:18;3.67;;;1.50;;
22334;SDS011;11335;43.848;25.958;2023-10-09T06:17:16;2.72;;;1.27;;
22334;SDS011;11335;43.848;25.958;2023-10-09T06:20:12;5.75;;;1.48;;
22334;SDS011;11335;43.848;25.958;2023-10-09T06:23:17;5.68;;;1.42;;
22334;SDS011;11335;43.848;25.958;2023-10-09T06:26:09;2.38;;;1.40;;
22334;SDS011;11335;43.848;25.958;2023-10-09T06:29:09;10.23;;;2.35;;
22334;SDS011;11335;43.848;25.958;2023-10-09T06:32:08;5.45;;;1.52;;
22334;SDS011;11335;43.848;25.958;2023-10-09T06:35:11;5.72;;;1.35;;
22334;SDS011;11335;43.848;25.958;2023-10-09T06:38:15;3.00;;;1.65;;
22334;SDS011;11335;43.848;25.958;2023-10-09T06:41:07;5.50;;;2.38;;
22334;SDS011;11335;43.848;25.958;2023-10-09T06:44:11;3.13;;;1.30;;
22334;SDS011;11335;43.848;25.958;2023-10-09T06:47:17;3.10;;;1.40;;
22334;SDS011;11335;43.848;25.958;2023-10-09T06:50:04;2.67;;;1.30;;
22334;SDS011;11335;43.848;25.958;2023-10-09T06:53:08;4.30;;;1.33;;
22334;SDS011;11335;43.848;25.958;2023-10-09T06:55:56;5.88;;;1.40;;
22334;SDS011;11335;43.848;25.958;2023-10-09T06:58:50;3.70;;;1.20;;
22334;SDS011;11335;43.848;25.958;2023-10-09T07:01:40;2.92;;;1.20;;
22334;SDS011;11335;43.848;25.958;2023-10-09T07:04:29;6.13;;;1.20;;
22334;SDS011;11335;43.848;25.958;2023-10-09T07:07:17;2.05;;;1.40;;
22334;SDS011;11335;43.848;25.958;2023-10-09T07:10:06;3.47;;;1.05;;
22334;SDS011;11335;43.848;25.958;2023-10-09T07:13:10;4.07;;;1.38;;
22334;SDS011;11335;43.848;25.958;2023-10-09T07:15:56;10.05;;;1.42;;
22334;SDS011;11335;43.848;25.958;2023-10-09T07:19:01;4.95;;;1.42;;
22334;SDS011;11335;43.848;25.958;2023-10-09T07:21:54;3.15;;;1.20;;
22334;SDS011;11335;43.848;25.958;2023-10-09T07:24:40;2.00;;;1.13;;
22334;SDS011;11335;43.848;25.958;2023-10-09T07:27:29;3.53;;;1.17;;
22334;SDS011;11335;43.848;25.958;2023-10-09T07:30:34;6.40;;;1.60;;
22334;SDS011;11335;43.848;25.958;2023-10-09T07:33:22;9.43;;;1.90;;
22334;SDS011;11335;43.848;25.958;2023-10-09T07:36:16;3.90;;;1.48;;
22334;SDS011;11335;43.848;25.958;2023-10-09T07:39:14;4.35;;;1.20;;
22334;SDS011;11335;43.848;25.958;2023-10-09T07:42:03;2.63;;;1.35;;
22334;SDS011;11335;43.848;25.958;2023-10-09T07:45:04;3.90;;;1.55;;
22334;SDS011;11335;43.848;25.958;2023-10-09T07:48:05;3.28;;;1.08;;
22334;SDS011;11335;43.848;25.958;2023-10-09T07:50:59;2.28;;;1.10;;
22334;SDS011;11335;43.848;25.958;2023-10-09T07:53:50;4.28;;;1.13;;
22334;SDS011;11335;43.848;25.958;2023-10-09T07:56:42;3.50;;;1.30;;
22334;SDS011;11335;43.848;25.958;2023-10-09T07:59:31;4.32;;;1.30;;
22334;SDS011;11335;43.848;25.958;2023-10-09T08:02:17;1.75;;;1.10;;
22334;SDS011;11335;43.848;25.958;2023-10-09T08:05:02;2.28;;;1.10;;
22334;SDS011;11335;43.848;25.958;2023-10-09T08:08:08;3.22;;;1.80;;
22334;SDS011;11335;43.848;25.958;2023-10-09T08:11:12;16.45;;;1.90;;
22334;SDS011;11335;43.848;25.958;2023-10-09T08:14:16;4.28;;;1.65;;
22334;SDS011;11335;43.848;25.958;2023-10-09T08:17:07;3.15;;;1.25;;
22334;SDS011;11335;43.848;25.958;2023-10-09T08:20:06;7.88;;;1.70;;
22334;SDS011;11335;43.848;25.958;2023-10-09T08:22:57;1.75;;;1.30;;
22334;SDS011;11335;43.848;25.958;2023-10-09T08:25:43;5.90;;;1.35;;
22334;SDS011;11335;43.848;25.958;2023-10-09T08:28:43;2.97;;;1.13;;
22334;SDS011;11335;43.848;25.958;2023-10-09T08:31:29;4.25;;;1.30;;
22334;SDS011;11335;43.848;25.958;2023-10-09T08:34:30;5.03;;;1.70;;
22334;SDS011;11335;43.848;25.958;2023-10-09T08:37:33;5.13;;;1.25;;
22334;SDS011;11335;43.848;25.958;2023-10-09T08:40:27;2.75;;;1.30;;
22334;SDS011;11335;43.848;25.958;2023-10-09T08:43:16;5.35;;;1.60;;
22334;SDS011;11335;43.848;25.958;2023-10-09T08:46:03;5.35;;;2.00;;
22334;SDS011;11335;43.848;25.958;2023-10-09T08:48:50;6.40;;;1.27;;
22334;SDS011;11335;43.848;25.958;2023-10-09T08:51:36;2.80;;;1.10;;
22334;SDS011;11335;43.848;25.958;2023-10-09T08:54:21;4.68;;;1.30;;
22334;SDS011;11335;43.848;25.958;2023-10-09T08:57:07;2.25;;;1.38;;
22334;SDS011;11335;43.848;25.958;2023-10-09T08:59:54;4.10;;;1.17;;
22334;SDS011;11335;43.848;25.958;2023-10-09T09:02:42;3.58;;;1.40;;
22334;SDS011;11335;43.848;25.958;2023-10-09T09:05:28;2.58;;;1.20;;
22334;SDS011;11335;43.848;25.958;2023-10-09T09:08:47;3.33;;;1.45;;
22334;SDS011;11335;43.848;25.958;2023-10-09T09:11:26;3.70;;;1.10;;
22334;SDS011;11335;43.848;25.958;2023-10-09T09:14:15;4.70;;;1.70;;
22334;SDS011;11335;43.848;25.958;2023-10-09T09:17:05;4.75;;;1.10;;
22334;SDS011;11335;43.848;25.958;2023-10-09T09:19:56;5.82;;;1.65;;
22334;SDS011;11335;43.848;25.958;2023-10-09T09:22:52;8.07;;;2.00;;
22334;SDS011;11335;43.848;25.958;2023-10-09T09:28:29;4.63;;;1.30;;
22334;SDS011;11335;43.848;25.958;2023-10-09T09:31:24;3.47;;;1.30;;
22334;SDS011;11335;43.848;25.958;2023-10-09T09:34:09;3.05;;;1.60;;
22334;SDS011;11335;43.848;25.958;2023-10-09T09:37:01;5.97;;;1.52;;
22334;SDS011;11335;43.848;25.958;2023-10-09T09:39:49;4.25;;;1.30;;
22334;SDS011;11335;43.848;25.958;2023-10-09T09:42:36;1.85;;;1.27;;
22334;SDS011;11335;43.848;25.958;2023-10-09T09:45:23;2.63;;;1.30;;
22334;SDS011;11335;43.848;25.958;2023-10-09T09:48:09;4.07;;;1.23;;
22334;SDS011;11335;43.848;25.958;2023-10-09T09:50:55;2.30;;;1.35;;
22334;SDS011;11335;43.848;25.958;2023-10-09T09:53:41;3.63;;;1.25;;
22334;SDS011;11335;43.848;25.958;2023-10-09T09:56:27;2.67;;;1.60;;
22334;SDS011;11335;43.848;25.958;2023-10-09T09:59:13;4.63;;;1.80;;
22334;SDS011;11335;43.848;25.958;2023-10-09T10:02:10;2.55;;;1.13;;
22334;SDS011;11335;43.848;25.958;2023-10-09T10:04:57;4.28;;;1.27;;
22334;SDS011;11335;43.848;25.958;2023-10-09T10:07:44;4.20;;;1.00;;
22334;SDS011;11335;43.848;25.958;2023-10-09T10:16:25;2.67;;;1.10;;
22334;SDS011;11335;43.848;25.958;2023-10-09T10:19:19;4.07;;;1.17;;
22334;SDS011;11335;43.848;25.958;2023-10-09T10:22:23;2.38;;;1.20;;
22334;SDS011;11335;43.848;25.958;2023-10-09T10:25:34;2.65;;;1.27;;
22334;SDS011;11335;43.848;25.958;2023-10-09T10:28:21;5.03;;;1.17;;
22334;SDS011;11335;43.848;25.958;2023-10-09T10:31:50;5.07;;;1.33;;
22334;SDS011;11335;43.848;25.958;2023-10-09T10:37:41;2.97;;;1.25;;
22334;SDS011;11335;43.848;25.958;2023-10-09T10:40:29;7.13;;;1.88;;
22334;SDS011;11335;43.848;25.958;2023-10-09T10:43:26;3.80;;;1.50;;
22334;SDS011;11335;43.848;25.958;2023-10-09T10:46:20;7.22;;;1.50;;
22334;SDS011;11335;43.848;25.958;2023-10-09T10:49:15;3.42;;;1.40;;
22334;SDS011;11335;43.848;25.958;2023-10-09T10:52:06;3.72;;;1.30;;
22334;SDS011;11335;43.848;25.958;2023-10-09T10:55:11;3.47;;;1.20;;
22334;SDS011;11335;43.848;25.958;2023-10-09T10:58:15;3.08;;;1.48;;
22334;SDS011;11335;43.848;25.958;2023-10-09T11:01:08;2.10;;;1.50;;
22334;SDS011;11335;43.848;25.958;2023-10-09T11:03:57;1.95;;;1.10;;
22334;SDS011;11335;43.848;25.958;2023-10-09T11:06:43;7.65;;;1.95;;
22334;SDS011;11335;43.848;25.958;2023-10-09T11:12:45;7.35;;;1.30;;
22334;SDS011;11335;43.848;25.958;2023-10-09T11:15:51;9.18;;;1.42;;
22334;SDS011;11335;43.848;25.958;2023-10-09T11:18:55;3.30;;;1.45;;
22334;SDS011;11335;43.848;25.958;2023-10-09T11:21:42;4.50;;;1.35;;
22334;SDS011;11335;43.848;25.958;2023-10-09T11:24:28;5.63;;;1.40;;
22334;SDS011;11335;43.848;25.958;2023-10-09T11:27:19;5.13;;;1.50;;
22334;SDS011;11335;43.848;25.958;2023-10-09T11:30:10;4.43;;;1.30;;
22334;SDS011;11335;43.848;25.958;2023-10-09T11:33:07;6.25;;;1.50;;
22334;SDS011;11335;43.848;25.958;2023-10-09T11:35:59;2.85;;;1.23;;
22334;SDS011;11335;43.848;25.958;2023-10-09T11:38:45;4.00;;;1.40;;
22334;SDS011;11335;43.848;25.958;2023-10-09T11:41:31;3.05;;;1.50;;
22334;SDS011;11335;43.848;25.958;2023-10-09T11:44:33;3.90;;;1.15;;
22334;SDS011;11335;43.848;25.958;2023-10-09T11:47:19;7.18;;;1.95;;
22334;SDS011;11335;43.848;25.958;2023-10-09T11:50:04;2.63;;;1.30;;
22334;SDS011;11335;43.848;25.958;2023-10-09T11:52:54;3.45;;;1.70;;
22334;SDS011;11335;43.848;25.958;2023-10-09T11:55:42;128.02;;;6.65;;
22334;SDS011;11335;43.848;25.958;2023-10-09T11:58:27;4.40;;;1.60;;
22334;SDS011;11335;43.848;25.958;2023-10-09T12:01:13;2.70;;;1.50;;
22334;SDS011;11335;43.848;25.958;2023-10-09T12:04:03;9.20;;;1.80;;
22334;SDS011;11335;43.848;25.958;2023-10-09T12:06:48;3.80;;;1.80;;
22334;SDS011;11335;43.848;25.958;2023-10-09T12:09:35;3.50;;;1.40;;
22334;SDS011;11335;43.848;25.958;2023-10-09T12:12:20;2.65;;;1.33;;
22334;SDS011;11335;43.848;25.958;2023-10-09T12:15:11;5.50;;;1.13;;
22334;SDS011;11335;43.848;25.958;2023-10-09T12:18:06;5.30;;;1.60;;
22334;SDS011;11335;43.848;25.958;2023-10-09T12:21:00;1.90;;;1.25;;
22334;SDS011;11335;43.848;25.958;2023-10-09T12:23:49;2.78;;;1.50;;
22334;SDS011;11335;43.848;25.958;2023-10-09T12:26:35;5.38;;;1.65;;
22334;SDS011;11335;43.848;25.958;2023-10-09T12:29:21;13.38;;;1.70;;
22334;SDS011;11335;43.848;25.958;2023-10-09T12:32:06;6.20;;;1.50;;
22334;SDS011;11335;43.848;25.958;2023-10-09T12:34:56;5.63;;;1.63;;
22334;SDS011;11335;43.848;25.958;2023-10-09T12:37:42;5.13;;;1.27;;
22334;SDS011;11335;43.848;25.958;2023-10-09T12:40:28;6.05;;;1.83;;
22334;SDS011;11335;43.848;25.958;2023-10-09T12:43:17;5.05;;;1.42;;
22334;SDS011;11335;43.848;25.958;2023-10-09T12:46:05;3.95;;;1.20;;
22334;SDS011;11335;43.848;25.958;2023-10-09T12:48:52;6.60;;;1.10;;
22334;SDS011;11335;43.848;25.958;2023-10-09T12:51:39;4.88;;;1.55;;
22334;SDS011;11335;43.848;25.958;2023-10-09T12:54:25;3.95;;;1.60;;
22334;SDS011;11335;43.848;25.958;2023-10-09T12:57:14;2.75;;;1.25;;
22334;SDS011;11335;43.848;25.958;2023-10-09T13:00:00;3.33;;;1.38;;
22334;SDS011;11335;43.848;25.958;2023-10-09T13:02:46;4.88;;;1.65;;
22334;SDS011;11335;43.848;25.958;2023-10-09T13:05:31;2.67;;;1.55;;
22334;SDS011;11335;43.848;25.958;2023-10-09T13:08:18;3.67;;;1.55;;
22334;SDS011;11335;43.848;25.958;2023-10-09T13:11:07;6.47;;;1.50;;
22334;SDS011;11335;43.848;25.958;2023-10-09T13:13:56;8.18;;;1.50;;
22334;SDS011;11335;43.848;25.958;2023-10-09T13:16:48;3.00;;;1.35;;
22334;SDS011;11335;43.848;25.958;2023-10-09T13:19:37;4.80;;;2.00;;
22334;SDS011;11335;43.848;25.958;2023-10-09T13:22:23;4.43;;;1.42;;
22334;SDS011;11335;43.848;25.958;2023-10-09T13:25:10;4.10;;;1.65;;
22334;SDS011;11335;43.848;25.958;2023-10-09T13:28:01;2.15;;;1.30;;
22334;SDS011;11335;43.848;25.958;2023-10-09T13:30:48;2.63;;;1.50;;
22334;SDS011;11335;43.848;25.958;2023-10-09T13:33:36;1.65;;;1.20;;
22334;SDS011;11335;43.848;25.958;2023-10-09T13:36:22;2.00;;;1.30;;
22334;SDS011;11335;43.848;25.958;2023-10-09T13:39:14;4.95;;;1.70;;
22334;SDS011;11335;43.848;25.958;2023-10-09T13:42:08;7.28;;;1.85;;
22334;SDS011;11335;43.848;25.958;2023-10-09T13:44:55;4.60;;;1.85;;
22334;SDS011;11335;43.848;25.958;2023-10-09T13:47:41;4.97;;;2.05;;
22334;SDS011;11335;43.848;25.958;2023-10-09T13:50:29;5.40;;;2.10;;
22334;SDS011;11335;43.848;25.958;2023-10-09T13:53:18;9.32;;;3.13;;
22334;SDS011;11335;43.848;25.958;2023-10-09T13:56:04;8.43;;;2.90;;
22334;SDS011;11335;43.848;25.958;2023-10-09T13:58:52;6.32;;;2.15;;
22334;SDS011;11335;43.848;25.958;2023-10-09T14:01:39;6.15;;;2.47;;
22334;SDS011;11335;43.848;25.958;2023-10-09T14:04:25;4.50;;;2.25;;
22334;SDS011;11335;43.848;25.958;2023-10-09T14:07:14;7.65;;;2.30;;
22334;SDS011;11335;43.848;25.958;2023-10-09T14:10:02;4.38;;;1.98;;
22334;SDS011;11335;43.848;25.958;2023-10-09T14:13:02;4.95;;;2.60;;
22334;SDS011;11335;43.848;25.958;2023-10-09T14:15:57;5.60;;;2.30;;
22334;SDS011;11335;43.848;25.958;2023-10-09T14:18:45;6.25;;;2.40;;
22334;SDS011;11335;43.848;25.958;2023-10-09T14:21:30;5.88;;;2.55;;
22334;SDS011;11335;43.848;25.958;2023-10-09T14:24:18;3.85;;;2.45;;
22334;SDS011;11335;43.848;25.958;2023-10-09T14:27:05;11.90;;;2.80;;
22334;SDS011;11335;43.848;25.958;2023-10-09T14:29:52;3.38;;;2.17;;
22334;SDS011;11335;43.848;25.958;2023-10-09T14:32:41;6.70;;;2.95;;
22334;SDS011;11335;43.848;25.958;2023-10-09T14:35:36;5.78;;;2.42;;
22334;SDS011;11335;43.848;25.958;2023-10-09T14:38:25;4.88;;;2.60;;
22334;SDS011;11335;43.848;25.958;2023-10-09T14:41:18;6.60;;;2.38;;
22334;SDS011;11335;43.848;25.958;2023-10-09T14:44:06;9.50;;;2.67;;
22334;SDS011;11335;43.848;25.958;2023-10-09T14:46:52;6.57;;;2.90;;
22334;SDS011;11335;43.848;25.958;2023-10-09T14:49:37;11.45;;;2.60;;
22334;SDS011;11335;43.848;25.958;2023-10-09T14:52:28;7.25;;;2.40;;
22334;SDS011;11335;43.848;25.958;2023-10-09T14:55:14;5.55;;;2.50;;
22334;SDS011;11335;43.848;25.958;2023-10-09T14:58:08;6.95;;;2.60;;
22334;SDS011;11335;43.848;25.958;2023-10-09T15:00:56;20.05;;;2.58;;
22334;SDS011;11335;43.848;25.958;2023-10-09T15:03:42;11.90;;;3.42;;
22334;SDS011;11335;43.848;25.958;2023-10-09T15:06:28;6.35;;;3.10;;
22334;SDS011;11335;43.848;25.958;2023-10-09T15:09:15;8.20;;;3.30;;
22334;SDS011;11335;43.848;25.958;2023-10-09T15:12:20;8.35;;;3.40;;
22334;SDS011;11335;43.848;25.958;2023-10-09T15:15:08;11.38;;;3.38;;
22334;SDS011;11335;43.848;25.958;2023-10-09T15:17:58;6.57;;;2.35;;
22334;SDS011;11335;43.848;25.958;2023-10-09T15:20:44;7.78;;;2.28;;
22334;SDS011;11335;43.848;25.958;2023-10-09T15:23:31;7.75;;;2.88;;
22334;SDS011;11335;43.848;25.958;2023-10-09T15:26:18;6.47;;;2.47;;
22334;SDS011;11335;43.848;25.958;2023-10-09T15:29:04;13.52;;;4.15;;
22334;SDS011;11335;43.848;25.958;2023-10-09T15:31:52;9.20;;;3.08;;
22334;SDS011;11335;43.848;25.958;2023-10-09T15:34:37;12.75;;;6.80;;
22334;SDS011;11335;43.848;25.958;2023-10-09T15:37:23;23.90;;;5.53;;
22334;SDS011;11335;43.848;25.958;2023-10-09T15:40:08;12.93;;;4.82;;
22334;SDS011;11335;43.848;25.958;2023-10-09T15:43:01;6.90;;;3.53;;
22334;SDS011;11335;43.848;25.958;2023-10-09T15:45:46;32.45;;;9.93;;
22334;SDS011;11335;43.848;25.958;2023-10-09T15:48:35;74.72;;;27.85;;
22334;SDS011;11335;43.848;25.958;2023-10-09T15:51:21;31.30;;;8.68;;
22334;SDS011;11335;43.848;25.958;2023-10-09T15:54:07;12.60;;;5.53;;
22334;SDS011;11335;43.848;25.958;2023-10-09T15:56:56;6.78;;;3.85;;
22334;SDS011;11335;43.848;25.958;2023-10-09T15:59:42;14.95;;;5.38;;
22334;SDS011;11335;43.848;25.958;2023-10-09T16:02:28;10.60;;;4.13;;
22334;SDS011;11335;43.848;25.958;2023-10-09T16:05:14;12.50;;;4.10;;
22334;SDS011;11335;43.848;25.958;2023-10-09T16:08:01;12.57;;;4.75;;
22334;SDS011;11335;43.848;25.958;2023-10-09T16:10:48;21.73;;;5.20;;
22334;SDS011;11335;43.848;25.958;2023-10-09T16:13:35;28.55;;;4.90;;
22334;SDS011;11335;43.848;25.958;2023-10-09T16:16:28;14.05;;;4.43;;
22334;SDS011;11335;43.848;25.958;2023-10-09T16:19:14;9.57;;;4.00;;
22334;SDS011;11335;43.848;25.958;2023-10-09T16:22:00;16.52;;;4.85;;
22334;SDS011;11335;43.848;25.958;2023-10-09T16:24:49;19.15;;;4.95;;
22334;SDS011;11335;43.848;25.958;2023-10-09T16:27:35;22.40;;;5.03;;
22334;SDS011;11335;43.848;25.958;2023-10-09T16:30:21;14.27;;;4.75;;
22334;SDS011;11335;43.848;25.958;2023-10-09T16:33:07;8.57;;;4.30;;
22334;SDS011;11335;43.848;25.958;2023-10-09T16:35:54;8.85;;;4.13;;
22334;SDS011;11335;43.848;25.958;2023-10-09T16:38:41;15.25;;;8.40;;
22334;SDS011;11335;43.848;25.958;2023-10-09T16:41:29;14.98;;;6.30;;
22334;SDS011;11335;43.848;25.958;2023-10-09T16:44:15;13.52;;;5.35;;
22334;SDS011;11335;43.848;25.958;2023-10-09T16:47:03;16.27;;;5.43;;
22334;SDS011;11335;43.848;25.958;2023-10-09T16:49:49;16.80;;;5.32;;
22334;SDS011;11335;43.848;25.958;2023-10-09T16:52:36;11.65;;;5.18;;
22334;SDS011;11335;43.848;25.958;2023-10-09T16:55:23;10.75;;;4.90;;
22334;SDS011;11335;43.848;25.958;2023-10-09T16:58:12;13.07;;;5.15;;
22334;SDS011;11335;43.848;25.958;2023-10-09T17:00:58;26.42;;;5.65;;
22334;SDS011;11335;43.848;25.958;2023-10-09T17:03:46;16.02;;;5.28;;
22334;SDS011;11335;43.848;25.958;2023-10-09T17:06:39;24.98;;;6.22;;
22334;SDS011;11335;43.848;25.958;2023-10-09T17:09:27;16.85;;;5.82;;
22334;SDS011;11335;43.848;25.958;2023-10-09T17:12:12;16.52;;;6.68;;
22334;SDS011;11335;43.848;25.958;2023-10-09T17:14:59;14.27;;;7.82;;